createdAt,value
2017-09-29T00:01:57.644Z,14.80
2017-09-29T00:04:23.818Z,14.80
2017-09-29T00:06:50.005Z,14.80
2017-09-29T00:09:16.949Z,14.80
2017-09-29T00:11:43.872Z,14.90
2017-09-29T00:14:10.094Z,14.80
2017-09-29T00:16:36.301Z,14.90
2017-09-29T00:19:02.533Z,14.90
2017-09-29T00:21:29.477Z,14.90
2017-09-29T00:23:55.720Z,14.90
2017-09-29T00:26:21.914Z,15.00
2017-09-29T00:28:48.095Z,15.00
2017-09-29T00:31:14.324Z,15.00
2017-09-29T00:33:40.532Z,15.00
2017-09-29T00:36:07.497Z,15.10
2017-09-29T00:38:33.694Z,15.00
2017-09-29T00:40:59.908Z,15.10
2017-09-29T00:43:26.103Z,15.20
2017-09-29T00:45:53.056Z,15.20
2017-09-29T00:48:19.261Z,15.20
2017-09-29T00:50:46.217Z,15.20
2017-09-29T00:53:13.314Z,15.20
2017-09-29T00:55:39.537Z,15.20
2017-09-29T00:58:05.721Z,15.30
2017-09-29T01:00:32.685Z,15.30
2017-09-29T01:02:58.870Z,15.30
2017-09-29T01:05:25.084Z,15.30
2017-09-29T01:07:52.096Z,15.30
2017-09-29T01:10:18.284Z,15.30
2017-09-29T01:12:45.237Z,15.30
2017-09-29T01:15:12.174Z,15.30
2017-09-29T01:17:39.155Z,15.20
2017-09-29T01:20:05.427Z,15.20
2017-09-29T01:22:31.644Z,15.20
2017-09-29T01:24:57.841Z,15.20
2017-09-29T01:27:24.060Z,15.20
2017-09-29T01:29:50.262Z,15.20
2017-09-29T01:32:17.231Z,15.20
2017-09-29T01:34:43.453Z,15.20
2017-09-29T01:37:09.665Z,15.30
2017-09-29T01:39:36.641Z,15.30
2017-09-29T01:42:02.871Z,15.30
2017-09-29T01:44:29.084Z,15.30
2017-09-29T01:46:55.282Z,15.20
2017-09-29T01:49:21.499Z,15.30
2017-09-29T01:51:47.690Z,15.20
2017-09-29T01:54:13.905Z,15.30
2017-09-29T01:56:40.097Z,15.30
2017-09-29T01:59:06.404Z,15.30
2017-09-29T02:01:32.713Z,15.30
2017-09-29T02:03:58.924Z,15.30
2017-09-29T02:06:25.118Z,15.30
2017-09-29T02:08:52.082Z,15.20
2017-09-29T02:11:19.013Z,15.20
2017-09-29T02:13:45.968Z,15.30
2017-09-29T02:16:12.906Z,15.20
2017-09-29T02:18:39.861Z,15.20
2017-09-29T02:21:06.789Z,15.30
2017-09-29T02:23:33.745Z,15.30
2017-09-29T02:26:00.677Z,15.40
2017-09-29T02:28:27.652Z,15.40
2017-09-29T02:30:53.868Z,15.40
2017-09-29T02:33:20.822Z,15.50
2017-09-29T02:35:47.025Z,15.50
2017-09-29T02:38:13.981Z,15.30
2017-09-29T02:40:40.913Z,15.30
2017-09-29T02:43:07.874Z,15.30
2017-09-29T02:45:34.804Z,15.30
2017-09-29T02:48:01.857Z,15.30
2017-09-29T02:50:28.790Z,15.20
2017-09-29T02:52:54.985Z,15.20
2017-09-29T02:55:21.203Z,15.20
2017-09-29T02:57:51.152Z,15.30
2017-09-29T03:00:32.516Z,15.30
2017-09-29T03:03:02.765Z,15.30
2017-09-29T03:05:41.044Z,15.20
2017-09-29T03:08:07.241Z,15.20
2017-09-29T03:10:33.473Z,15.30
2017-09-29T03:12:59.669Z,15.30
2017-09-29T03:15:26.628Z,15.30
2017-09-29T03:17:52.844Z,15.30
2017-09-29T03:20:19.782Z,15.20
2017-09-29T03:22:46.745Z,15.20
2017-09-29T03:25:13.710Z,15.20
2017-09-29T03:27:39.901Z,15.20
2017-09-29T03:30:06.139Z,15.20
2017-09-29T03:32:33.109Z,15.20
2017-09-29T03:34:59.321Z,15.20
2017-09-29T03:37:26.269Z,15.20
2017-09-29T03:39:52.523Z,15.20
2017-09-29T03:42:18.726Z,15.20
2017-09-29T03:44:44.920Z,15.20
2017-09-29T03:47:11.138Z,15.20
2017-09-29T03:49:37.520Z,15.10
2017-09-29T03:52:07.298Z,15.00
2017-09-29T03:54:37.332Z,15.00
2017-09-29T03:57:07.201Z,15.10
2017-09-29T03:59:33.376Z,15.00
2017-09-29T04:02:00.681Z,15.10
2017-09-29T04:04:26.860Z,15.10
2017-09-29T04:06:53.798Z,15.10
2017-09-29T04:09:21.041Z,15.20
2017-09-29T04:11:47.996Z,15.20
2017-09-29T04:14:14.920Z,15.20
2017-09-29T04:16:41.135Z,15.20
2017-09-29T04:19:07.345Z,15.10
2017-09-29T04:21:33.584Z,15.00
2017-09-29T04:23:59.799Z,15.00
2017-09-29T04:26:26.055Z,14.90
2017-09-29T04:28:52.257Z,14.90
2017-09-29T04:31:18.487Z,14.90
2017-09-29T04:33:44.685Z,15.00
2017-09-29T04:36:10.917Z,15.00
2017-09-29T04:38:37.117Z,15.00
2017-09-29T04:41:04.046Z,14.80
2017-09-29T04:43:30.241Z,14.80
2017-09-29T04:45:56.418Z,14.80
2017-09-29T04:48:23.361Z,14.60
2017-09-29T04:50:50.272Z,14.60
2017-09-29T04:53:16.494Z,14.60
2017-09-29T04:55:42.664Z,14.70
2017-09-29T04:58:09.605Z,14.70
2017-09-29T05:00:36.558Z,14.60
2017-09-29T05:03:03.514Z,14.60
2017-09-29T05:05:29.691Z,14.60
2017-09-29T05:07:55.893Z,14.60
2017-09-29T05:10:22.086Z,14.50
2017-09-29T05:12:49.033Z,14.40
2017-09-29T05:15:15.972Z,14.50
2017-09-29T05:17:42.961Z,14.40
2017-09-29T05:20:09.137Z,14.40
2017-09-29T05:22:36.072Z,14.40
2017-09-29T05:25:02.315Z,14.40
2017-09-29T05:27:29.241Z,14.40
2017-09-29T05:29:55.449Z,14.40
2017-09-29T05:32:21.661Z,14.40
2017-09-29T05:34:47.897Z,14.40
2017-09-29T05:37:14.086Z,14.50
2017-09-29T05:39:40.294Z,14.50
2017-09-29T05:42:07.206Z,14.60
2017-09-29T05:44:34.138Z,14.60
2017-09-29T05:47:01.091Z,14.70
2017-09-29T05:49:27.281Z,14.70
2017-09-29T05:51:53.485Z,14.80
2017-09-29T05:54:20.418Z,14.70
2017-09-29T05:56:46.617Z,14.70
2017-09-29T05:59:12.845Z,14.70
2017-09-29T06:01:39.066Z,14.70
2017-09-29T06:04:05.249Z,14.70
2017-09-29T06:06:31.448Z,14.70
2017-09-29T06:08:57.654Z,14.70
2017-09-29T06:11:23.841Z,14.70
2017-09-29T06:13:50.046Z,14.70
2017-09-29T06:16:16.970Z,14.70
2017-09-29T06:18:43.178Z,14.70
2017-09-29T06:21:09.387Z,14.80
2017-09-29T06:23:35.597Z,14.80
2017-09-29T06:26:01.781Z,14.90
2017-09-29T06:28:28.001Z,14.90
2017-09-29T06:30:54.233Z,14.90
2017-09-29T06:33:20.478Z,15.00
2017-09-29T06:35:46.661Z,15.10
2017-09-29T06:38:12.865Z,15.20
2017-09-29T06:40:39.037Z,15.20
2017-09-29T06:43:05.252Z,15.30
2017-09-29T06:45:31.460Z,15.30
2017-09-29T06:47:57.640Z,15.40
2017-09-29T06:50:23.837Z,15.50
2017-09-29T06:52:50.031Z,15.60
2017-09-29T06:55:16.257Z,15.60
2017-09-29T06:57:42.465Z,15.70
2017-09-29T07:00:09.436Z,15.90
2017-09-29T07:02:35.654Z,15.80
2017-09-29T07:05:02.618Z,16.00
2017-09-29T07:07:28.845Z,16.00
2017-09-29T07:09:55.193Z,16.10
2017-09-29T07:12:21.385Z,16.10
2017-09-29T07:14:48.341Z,16.30
2017-09-29T07:17:14.541Z,16.30
2017-09-29T07:19:41.521Z,16.50
2017-09-29T07:22:07.731Z,16.50
2017-09-29T07:24:37.985Z,16.60
2017-09-29T07:27:08.965Z,16.70
2017-09-29T07:29:39.382Z,16.70
2017-09-29T07:32:12.317Z,16.80
2017-09-29T07:34:38.541Z,17.00
2017-09-29T07:37:04.766Z,17.10
2017-09-29T07:39:30.985Z,17.00
2017-09-29T07:41:57.932Z,17.00
2017-09-29T07:44:24.162Z,17.00
2017-09-29T07:46:51.090Z,17.00
2017-09-29T07:49:18.049Z,17.10
2017-09-29T07:51:44.974Z,17.10
2017-09-29T07:54:11.197Z,17.10
2017-09-29T07:56:37.376Z,17.20
2017-09-29T07:59:03.613Z,17.30
2017-09-29T08:01:29.810Z,17.40
2017-09-29T08:03:56.883Z,17.50
2017-09-29T08:06:23.096Z,17.50
2017-09-29T08:08:49.273Z,17.50
2017-09-29T08:11:15.477Z,17.50
2017-09-29T08:13:41.702Z,17.60
2017-09-29T08:16:07.897Z,17.70
2017-09-29T08:18:34.077Z,17.70
2017-09-29T08:21:00.277Z,17.70
2017-09-29T08:23:26.449Z,17.70
2017-09-29T08:25:52.673Z,17.70
2017-09-29T08:28:18.982Z,17.70
2017-09-29T08:30:45.190Z,17.80
2017-09-29T08:33:11.389Z,17.80
2017-09-29T08:35:38.337Z,18.10
2017-09-29T08:38:04.520Z,18.10
2017-09-29T08:40:30.729Z,18.30
2017-09-29T08:42:56.909Z,18.30
2017-09-29T08:45:23.865Z,18.50
2017-09-29T08:47:50.053Z,18.40
2017-09-29T08:50:16.257Z,18.50
2017-09-29T08:52:42.449Z,18.60
2017-09-29T08:55:08.653Z,18.50
2017-09-29T08:57:35.571Z,18.70
2017-09-29T09:00:01.794Z,18.70
2017-09-29T09:02:27.980Z,18.70
2017-09-29T09:04:54.181Z,18.80
2017-09-29T09:07:21.102Z,19.00
2017-09-29T09:09:47.326Z,19.00
2017-09-29T09:12:13.500Z,19.20
2017-09-29T09:14:40.449Z,19.30
2017-09-29T09:17:06.657Z,19.30
2017-09-29T09:19:33.617Z,19.50
2017-09-29T09:21:59.792Z,19.40
2017-09-29T09:24:25.973Z,19.60
2017-09-29T09:26:52.173Z,19.80
2017-09-29T09:29:18.361Z,19.80
2017-09-29T09:31:44.593Z,19.90
2017-09-29T09:34:10.769Z,20.00
2017-09-29T09:36:37.748Z,20.20
2017-09-29T09:39:03.967Z,20.20
2017-09-29T09:41:30.182Z,20.30
2017-09-29T09:43:57.101Z,20.50
2017-09-29T09:46:23.272Z,20.50
2017-09-29T09:48:49.502Z,20.70
2017-09-29T09:51:15.680Z,20.80
2017-09-29T09:53:41.894Z,20.90
2017-09-29T09:56:08.109Z,20.90
2017-09-29T09:58:34.337Z,20.90
2017-09-29T10:01:00.513Z,20.90
2017-09-29T10:03:27.460Z,21.20
2017-09-29T10:05:54.389Z,21.30
2017-09-29T10:08:20.585Z,21.30
2017-09-29T10:10:46.785Z,21.40
2017-09-29T10:13:13.000Z,21.40
2017-09-29T10:15:39.173Z,21.50
2017-09-29T10:18:05.384Z,21.60
2017-09-29T10:20:31.568Z,21.70
2017-09-29T10:22:58.526Z,21.60
2017-09-29T10:25:24.720Z,21.50
2017-09-29T10:27:50.936Z,21.60
2017-09-29T10:30:17.121Z,21.80
2017-09-29T10:32:43.357Z,21.80
2017-09-29T10:35:09.629Z,22.00
2017-09-29T10:37:35.841Z,22.10
2017-09-29T10:40:02.025Z,22.20
2017-09-29T10:42:28.225Z,22.20
2017-09-29T10:44:54.397Z,22.30
2017-09-29T10:47:20.588Z,22.20
2017-09-29T10:49:47.497Z,22.30
2017-09-29T10:52:13.700Z,22.30
2017-09-29T10:54:39.878Z,22.40
2017-09-29T10:57:06.126Z,22.60
2017-09-29T10:59:33.045Z,22.90
2017-09-29T11:01:59.269Z,22.90
2017-09-29T11:04:25.454Z,22.70
2017-09-29T11:06:51.654Z,22.70
2017-09-29T11:09:18.573Z,22.80
2017-09-29T11:11:44.769Z,22.80
2017-09-29T11:14:11.197Z,22.70
2017-09-29T11:16:37.408Z,22.70
2017-09-29T11:19:03.601Z,22.80
2017-09-29T11:21:30.549Z,22.90
2017-09-29T11:23:57.489Z,23.10
2017-09-29T11:26:24.433Z,23.20
2017-09-29T11:28:51.349Z,23.20
2017-09-29T11:31:17.572Z,23.20
2017-09-29T11:33:43.765Z,23.30
2017-09-29T11:36:09.969Z,23.30
2017-09-29T11:38:36.885Z,23.30
2017-09-29T11:41:03.089Z,23.30
2017-09-29T11:43:29.273Z,23.30
2017-09-29T11:45:56.212Z,23.50
2017-09-29T11:48:23.155Z,23.60
2017-09-29T11:50:50.133Z,23.70
2017-09-29T11:53:16.301Z,23.70
2017-09-29T11:55:42.475Z,23.80
2017-09-29T11:58:08.675Z,23.90
2017-09-29T12:00:35.617Z,24.20
2017-09-29T12:03:01.813Z,24.10
2017-09-29T12:05:27.993Z,24.20
2017-09-29T12:07:54.189Z,24.30
2017-09-29T12:10:20.361Z,24.30
2017-09-29T12:12:46.554Z,24.20
2017-09-29T12:15:12.752Z,24.30
2017-09-29T12:17:38.961Z,24.40
2017-09-29T12:20:05.133Z,24.70
2017-09-29T12:22:31.334Z,25.30
2017-09-29T12:24:58.261Z,26.90
2017-09-29T12:27:24.464Z,26.80
2017-09-29T12:29:50.665Z,27.80
2017-09-29T12:32:17.604Z,29.20
2017-09-29T12:34:44.549Z,29.80
2017-09-29T12:37:10.749Z,29.70
2017-09-29T12:39:36.928Z,30.50
2017-09-29T12:42:03.133Z,30.70
2017-09-29T12:44:29.305Z,30.80
2017-09-29T12:46:55.498Z,31.40
2017-09-29T12:49:22.417Z,31.70
2017-09-29T12:51:48.613Z,31.70
2017-09-29T12:54:14.785Z,32.30
2017-09-29T12:56:40.989Z,32.80
2017-09-29T12:59:07.164Z,32.90
2017-09-29T13:01:33.376Z,32.90
2017-09-29T13:04:00.306Z,32.80
2017-09-29T13:06:26.557Z,32.80
2017-09-29T13:08:53.481Z,32.90
2017-09-29T13:11:19.705Z,32.90
2017-09-29T13:13:45.876Z,32.50
2017-09-29T13:16:12.074Z,32.40
2017-09-29T13:18:38.245Z,32.30
2017-09-29T13:21:04.459Z,31.80
2017-09-29T13:23:30.630Z,31.50
2017-09-29T13:25:56.838Z,30.80
2017-09-29T13:28:23.012Z,30.60
2017-09-29T13:30:49.973Z,29.60
2017-09-29T13:33:16.150Z,29.60
2017-09-29T13:35:42.350Z,29.40
2017-09-29T13:38:08.526Z,29.30
2017-09-29T13:40:34.721Z,28.90
2017-09-29T13:43:00.888Z,28.90
2017-09-29T13:45:27.073Z,29.80
2017-09-29T13:47:53.269Z,30.30
2017-09-29T13:50:19.465Z,30.40
2017-09-29T13:52:45.632Z,30.60
2017-09-29T13:55:11.801Z,30.80
2017-09-29T13:57:37.992Z,31.10
2017-09-29T14:00:04.662Z,31.30
2017-09-29T14:02:30.866Z,30.50
2017-09-29T14:04:57.035Z,30.70
2017-09-29T14:07:23.253Z,30.20
2017-09-29T14:09:49.441Z,29.30
2017-09-29T14:12:15.633Z,28.80
2017-09-29T14:14:42.549Z,29.50
2017-09-29T14:17:08.740Z,29.50
2017-09-29T14:19:34.909Z,29.80
2017-09-29T14:22:01.109Z,30.40
2017-09-29T14:24:27.289Z,30.50
2017-09-29T14:26:54.250Z,30.20
2017-09-29T14:29:20.440Z,30.10
2017-09-29T14:31:48.120Z,28.90
2017-09-29T14:34:15.065Z,28.90
2017-09-29T14:36:41.980Z,29.70
2017-09-29T14:39:08.188Z,29.60
2017-09-29T14:41:34.368Z,30.20
2017-09-29T14:44:01.305Z,30.40
2017-09-29T14:46:27.477Z,30.30
2017-09-29T14:48:53.669Z,30.70
2017-09-29T14:51:20.572Z,31.30
2017-09-29T14:53:46.769Z,31.30
2017-09-29T14:56:12.946Z,31.20
2017-09-29T14:58:39.145Z,30.80
2017-09-29T15:01:05.321Z,29.90
2017-09-29T15:03:32.271Z,28.30
2017-09-29T15:05:59.189Z,28.40
2017-09-29T15:08:25.393Z,28.30
2017-09-29T15:10:51.561Z,28.40
2017-09-29T15:13:18.492Z,29.00
2017-09-29T15:15:44.660Z,28.90
2017-09-29T15:18:10.861Z,28.70
2017-09-29T15:20:37.781Z,28.50
2017-09-29T15:23:04.842Z,28.50
2017-09-29T15:25:31.024Z,28.30
2017-09-29T15:27:57.261Z,28.10
2017-09-29T15:30:23.460Z,27.90
2017-09-29T15:32:49.661Z,27.70
2017-09-29T15:35:16.577Z,27.40
2017-09-29T15:37:42.777Z,27.40
2017-09-29T15:40:08.953Z,26.90
2017-09-29T15:42:35.153Z,26.20
2017-09-29T15:45:01.329Z,26.10
2017-09-29T15:47:28.274Z,25.90
2017-09-29T15:49:55.180Z,26.30
2017-09-29T15:52:21.356Z,26.30
2017-09-29T15:54:47.549Z,26.10
2017-09-29T15:57:13.722Z,26.00
2017-09-29T15:59:39.913Z,26.40
2017-09-29T16:02:06.820Z,26.90
2017-09-29T16:04:33.017Z,26.90
2017-09-29T16:06:59.192Z,27.10
2017-09-29T16:09:25.396Z,26.80
2017-09-29T16:11:51.576Z,26.90
2017-09-29T16:14:18.536Z,26.20
2017-09-29T16:16:44.712Z,26.20
2017-09-29T16:19:10.932Z,26.00
2017-09-29T16:21:37.104Z,25.60
2017-09-29T16:24:04.041Z,25.20
2017-09-29T16:26:30.949Z,25.00
2017-09-29T16:28:57.143Z,25.00
2017-09-29T16:31:23.356Z,24.90
2017-09-29T16:33:50.305Z,24.30
2017-09-29T16:36:16.482Z,24.30
2017-09-29T16:38:42.688Z,24.00
2017-09-29T16:41:08.865Z,23.90
2017-09-29T16:43:35.805Z,23.40
2017-09-29T16:46:01.979Z,23.40
2017-09-29T16:48:28.201Z,23.20
2017-09-29T16:50:54.378Z,22.90
2017-09-29T16:53:20.588Z,22.70
2017-09-29T16:55:46.765Z,22.50
2017-09-29T16:58:13.709Z,22.00
2017-09-29T17:00:39.893Z,22.00
2017-09-29T17:03:06.105Z,21.70
2017-09-29T17:05:32.289Z,21.60
2017-09-29T17:07:59.236Z,21.40
2017-09-29T17:10:25.413Z,21.30
2017-09-29T17:12:51.621Z,21.30
2017-09-29T17:15:17.816Z,21.10
2017-09-29T17:17:44.755Z,20.80
2017-09-29T17:20:11.671Z,20.80
2017-09-29T17:22:38.612Z,20.70
2017-09-29T17:25:04.792Z,20.60
2017-09-29T17:27:31.003Z,20.60
2017-09-29T17:29:57.964Z,20.30
2017-09-29T17:32:24.182Z,20.20
2017-09-29T17:34:51.101Z,20.00
2017-09-29T17:37:17.301Z,19.90
2017-09-29T17:39:43.486Z,19.80
2017-09-29T17:42:09.677Z,19.70
2017-09-29T17:44:35.870Z,19.60
2017-09-29T17:49:35.061Z,19.30
2017-09-29T17:52:01.257Z,19.20
2017-09-29T17:54:28.169Z,19.00
2017-09-29T17:56:54.377Z,18.90
2017-09-29T17:59:20.593Z,18.90
2017-09-29T18:01:46.969Z,18.80
2017-09-29T18:04:13.170Z,18.70
2017-09-29T18:06:39.342Z,18.70
2017-09-29T18:09:05.546Z,18.60
2017-09-29T18:11:31.716Z,18.50
2017-09-29T18:13:57.929Z,18.40
2017-09-29T18:16:24.849Z,18.20
2017-09-29T18:18:51.045Z,18.20
2017-09-29T18:21:17.237Z,18.10
2017-09-29T18:23:44.183Z,18.10
2017-09-29T18:26:11.109Z,18.00
2017-09-29T18:28:38.081Z,18.00
2017-09-29T18:31:05.021Z,18.00
2017-09-29T18:33:31.965Z,17.90
2017-09-29T18:35:58.172Z,17.90
2017-09-29T18:38:24.377Z,17.90
2017-09-29T18:41:00.518Z,17.80
2017-09-29T18:43:27.737Z,17.80
2017-09-29T18:45:54.721Z,17.70
2017-09-29T18:48:20.925Z,17.70
2017-09-29T18:50:47.106Z,17.70
2017-09-29T18:53:13.313Z,17.60
2017-09-29T18:55:39.507Z,17.70
2017-09-29T18:58:05.709Z,17.60
2017-09-29T19:00:32.669Z,17.50
2017-09-29T19:02:58.869Z,17.50
2017-09-29T19:05:25.064Z,17.50
2017-09-29T19:07:51.309Z,17.40
2017-09-29T19:10:17.495Z,17.40
2017-09-29T19:12:43.679Z,17.40
2017-09-29T19:15:09.881Z,17.40
2017-09-29T19:17:36.097Z,17.40
2017-09-29T19:20:09.422Z,17.50
2017-09-29T19:22:35.609Z,17.50
2017-09-29T19:25:01.819Z,17.30
2017-09-29T19:27:28.001Z,17.40
2017-09-29T19:29:54.209Z,17.40
2017-09-29T19:32:20.432Z,17.40
2017-09-29T19:34:46.665Z,17.30
2017-09-29T19:37:13.630Z,17.30
2017-09-29T19:39:39.849Z,17.30
2017-09-29T19:42:06.080Z,17.30
2017-09-29T19:44:33.080Z,17.10
2017-09-29T19:46:59.264Z,17.00
2017-09-29T19:49:25.465Z,17.00
2017-09-29T19:51:51.653Z,16.90
2017-09-29T19:54:17.857Z,16.90
2017-09-29T19:56:44.040Z,16.90
2017-09-29T19:59:10.244Z,16.80
2017-09-29T20:01:36.456Z,16.80
2017-09-29T20:04:03.369Z,16.90
2017-09-29T20:06:29.590Z,16.80
2017-09-29T20:08:55.773Z,16.90
2017-09-29T20:11:22.106Z,17.00
2017-09-29T20:13:48.346Z,17.00
2017-09-29T20:16:14.548Z,17.10
2017-09-29T20:18:41.493Z,17.20
2017-09-29T20:21:08.441Z,17.20
2017-09-29T20:23:34.628Z,17.20
2017-09-29T20:26:00.829Z,17.20
2017-09-29T20:28:27.024Z,17.20
2017-09-29T20:30:53.237Z,17.10
2017-09-29T20:33:20.162Z,17.10
2017-09-29T20:35:46.373Z,17.10
2017-09-29T20:38:12.573Z,17.20
2017-09-29T20:40:38.793Z,17.10
2017-09-29T20:43:04.981Z,17.10
2017-09-29T20:45:31.181Z,17.10
2017-09-29T20:47:57.378Z,17.10
2017-09-29T20:50:23.582Z,17.10
2017-09-29T20:52:50.518Z,17.00
2017-09-29T20:55:17.473Z,16.90
2017-09-29T20:57:44.388Z,16.90
2017-09-29T21:00:10.596Z,16.90
2017-09-29T21:02:36.781Z,16.90
2017-09-29T21:05:03.010Z,16.80
2017-09-29T21:07:29.188Z,16.90
2017-09-29T21:09:56.153Z,16.80
2017-09-29T21:12:22.330Z,16.80
2017-09-29T21:14:48.525Z,16.80
2017-09-29T21:17:15.457Z,16.70
2017-09-29T21:19:42.396Z,16.60
2017-09-29T21:22:08.568Z,16.60
2017-09-29T21:24:34.774Z,16.60
2017-09-29T21:27:01.705Z,16.50
2017-09-29T21:29:35.765Z,16.50
2017-09-29T21:32:01.990Z,16.50
2017-09-29T21:34:28.206Z,16.60
2017-09-29T21:36:54.378Z,16.60
2017-09-29T21:39:20.641Z,16.60
2017-09-29T21:41:47.563Z,16.60
2017-09-29T21:44:13.780Z,16.60
2017-09-29T21:46:39.962Z,16.50
2017-09-29T21:49:06.160Z,16.60
2017-09-29T21:51:33.080Z,16.50
2017-09-29T21:53:59.281Z,16.50
2017-09-29T21:56:25.469Z,16.40
2017-09-29T21:58:52.421Z,16.40
2017-09-29T22:01:18.622Z,16.40
2017-09-29T22:03:44.824Z,16.40
2017-09-29T22:06:11.009Z,16.30
2017-09-29T22:08:37.217Z,16.30
2017-09-29T22:11:04.138Z,16.30
2017-09-29T22:13:30.355Z,16.30
2017-09-29T22:15:56.538Z,16.20
2017-09-29T22:18:22.716Z,16.30
2017-09-29T22:20:48.922Z,16.20
2017-09-29T22:23:15.101Z,16.30
2017-09-29T22:25:42.053Z,16.20
2017-09-29T22:28:08.976Z,16.20
2017-09-29T22:30:35.206Z,16.30
2017-09-29T22:33:02.129Z,16.30
2017-09-29T22:35:28.329Z,16.30
2017-09-29T22:37:54.505Z,16.30
2017-09-29T22:40:21.444Z,16.30
2017-09-29T22:42:47.637Z,16.20
2017-09-29T22:45:13.841Z,16.30
2017-09-29T22:47:46.901Z,16.20
2017-09-29T22:50:13.849Z,16.30
2017-09-29T22:52:40.778Z,16.30
2017-09-29T22:55:07.045Z,16.30
2017-09-29T22:57:33.234Z,16.30
2017-09-29T22:59:59.437Z,16.30
2017-09-29T23:02:25.637Z,16.30
2017-09-29T23:04:51.842Z,16.30
2017-09-29T23:07:18.761Z,16.40
2017-09-29T23:09:44.986Z,16.30
2017-09-29T23:12:11.172Z,16.30
2017-09-29T23:14:37.365Z,16.40
2017-09-29T23:17:04.286Z,16.30
2017-09-29T23:19:30.489Z,16.30
2017-09-29T23:21:56.684Z,16.40
2017-09-29T23:24:22.922Z,16.40
2017-09-29T23:26:49.098Z,16.40
2017-09-29T23:29:15.281Z,16.50
2017-09-29T23:31:41.501Z,16.40
2017-09-29T23:34:07.685Z,16.40
2017-09-29T23:36:34.625Z,16.40
2017-09-29T23:39:01.573Z,16.40
2017-09-29T23:41:27.783Z,16.40
2017-09-29T23:43:54.023Z,16.40
2017-09-29T23:46:20.225Z,16.40
2017-09-29T23:48:46.406Z,16.40
2017-09-29T23:51:13.392Z,16.40
2017-09-29T23:53:39.572Z,16.30
2017-09-29T23:56:13.566Z,16.40
2017-09-29T23:58:39.749Z,16.40
